createdAt,value
2018-06-03T00:00:49.751Z,5.57
2018-06-03T00:03:47.689Z,4.67
2018-06-03T00:06:45.570Z,5.47
2018-06-03T00:09:42.603Z,4.87
2018-06-03T00:12:40.421Z,5.83
2018-06-03T00:15:38.281Z,4.60
2018-06-03T00:18:35.232Z,5.27
2018-06-03T00:21:57.245Z,4.30
2018-06-03T00:24:55.161Z,4.47
2018-06-03T00:27:53.110Z,4.63
2018-06-03T00:30:51.206Z,4.43
2018-06-03T00:33:49.233Z,4.60
2018-06-03T00:36:58.204Z,4.70
2018-06-03T00:39:56.005Z,5.30
2018-06-03T00:42:53.865Z,4.87
2018-06-03T00:45:51.818Z,5.20
2018-06-03T00:48:49.596Z,5.13
2018-06-03T00:51:47.629Z,4.70
2018-06-03T00:54:45.380Z,5.60
2018-06-03T00:57:43.275Z,5.07
2018-06-03T01:00:41.378Z,5.00
2018-06-03T01:03:38.422Z,4.80
2018-06-03T01:06:36.072Z,4.37
2018-06-03T01:09:34.029Z,5.00
2018-06-03T01:12:31.117Z,4.30
2018-06-03T01:15:29.144Z,4.40
2018-06-03T01:19:13.268Z,4.67
2018-06-03T01:22:10.985Z,4.73
2018-06-03T01:25:09.736Z,4.87
2018-06-03T01:28:07.654Z,4.97
2018-06-03T01:31:05.553Z,5.90
2018-06-03T01:34:03.604Z,5.20
2018-06-03T01:37:01.533Z,5.70
2018-06-03T01:39:59.472Z,5.13
2018-06-03T01:42:56.724Z,6.27
2018-06-03T01:45:54.702Z,6.07
2018-06-03T01:48:52.608Z,5.33
2018-06-03T01:51:50.491Z,6.30
2018-06-03T01:54:48.858Z,5.90
2018-06-03T01:57:46.595Z,6.30
2018-06-03T02:00:44.760Z,5.50
2018-06-03T02:03:42.800Z,5.67
2018-06-03T02:06:40.868Z,7.37
2018-06-03T02:09:38.590Z,6.87
2018-06-03T02:12:36.567Z,6.43
2018-06-03T02:15:34.596Z,7.67
2018-06-03T02:18:32.359Z,6.10
2018-06-03T02:21:30.530Z,6.97
2018-06-03T02:24:28.701Z,5.87
2018-06-03T02:27:26.859Z,7.43
2018-06-03T02:30:16.763Z,7.83
2018-06-03T02:33:06.747Z,6.53
2018-06-03T02:36:04.458Z,6.53
2018-06-03T02:38:54.108Z,6.10
2018-06-03T02:41:51.819Z,6.47
2018-06-03T02:44:50.945Z,6.53
2018-06-03T02:47:49.057Z,7.30
2018-06-03T02:50:46.865Z,6.73
2018-06-03T02:53:45.701Z,6.80
2018-06-03T02:56:43.616Z,6.90
2018-06-03T02:59:42.357Z,7.00
2018-06-03T03:02:40.532Z,6.37
2018-06-03T03:05:39.623Z,6.57
2018-06-03T03:08:37.460Z,6.93
2018-06-03T03:11:35.562Z,7.17
2018-06-03T03:14:33.508Z,7.43
2018-06-03T03:17:31.693Z,6.60
2018-06-03T03:20:29.583Z,7.33
2018-06-03T03:23:27.618Z,6.30
2018-06-03T03:26:24.941Z,6.90
2018-06-03T03:29:23.059Z,6.40
2018-06-03T03:32:21.004Z,6.17
2018-06-03T03:35:19.125Z,6.80
2018-06-03T03:38:17.162Z,6.70
2018-06-03T03:41:15.065Z,7.03
2018-06-03T03:44:12.342Z,6.70
2018-06-03T03:47:10.151Z,6.73
2018-06-03T03:50:08.227Z,7.00
2018-06-03T03:53:06.894Z,6.80
2018-06-03T03:56:04.873Z,7.30
2018-06-03T03:59:02.812Z,7.33
2018-06-03T04:01:52.534Z,7.23
2018-06-03T04:04:50.616Z,6.87
2018-06-03T04:07:48.225Z,7.50
2018-06-03T04:10:45.860Z,6.47
2018-06-03T04:13:43.816Z,7.80
2018-06-03T04:16:41.588Z,7.80
2018-06-03T04:19:39.457Z,6.73
2018-06-03T04:22:37.282Z,6.47
2018-06-03T04:25:34.517Z,6.57
2018-06-03T04:28:32.419Z,6.67
2018-06-03T04:31:30.663Z,5.53
2018-06-03T04:34:28.494Z,5.70
2018-06-03T04:37:26.581Z,5.07
2018-06-03T04:40:24.611Z,4.77
2018-06-03T04:43:21.810Z,4.90
2018-06-03T04:46:19.779Z,4.70
2018-06-03T04:49:17.711Z,4.33
2018-06-03T04:52:15.707Z,4.50
2018-06-03T04:55:13.367Z,4.83
2018-06-03T04:58:11.408Z,4.57
2018-06-03T05:01:09.198Z,4.30
2018-06-03T05:04:07.107Z,3.87
2018-06-03T05:07:05.099Z,4.27
2018-06-03T05:10:03.253Z,4.40
2018-06-03T05:13:00.449Z,4.27
2018-06-03T05:15:58.276Z,3.60
2018-06-03T05:18:56.310Z,3.97
2018-06-03T05:21:54.105Z,3.50
2018-06-03T05:24:52.045Z,4.00
2018-06-03T05:27:49.743Z,3.50
2018-06-03T05:30:47.596Z,3.97
2018-06-03T05:33:45.422Z,3.90
2018-06-03T05:36:43.714Z,3.13
2018-06-03T05:39:41.787Z,2.90
2018-06-03T05:42:40.347Z,3.40
2018-06-03T05:45:38.180Z,3.43
2018-06-03T05:48:36.258Z,2.90
2018-06-03T05:51:34.387Z,2.80
2018-06-03T05:54:33.442Z,2.73
2018-06-03T05:57:31.398Z,3.37
2018-06-03T06:00:29.375Z,3.03
2018-06-03T06:03:27.293Z,3.00
2018-06-03T06:06:25.391Z,3.13
2018-06-03T06:09:23.296Z,2.93
2018-06-03T06:12:21.219Z,2.77
2018-06-03T06:15:18.934Z,2.50
2018-06-03T06:18:17.072Z,2.80
2018-06-03T06:21:15.031Z,2.30
2018-06-03T06:24:12.990Z,2.80
2018-06-03T06:27:10.886Z,2.93
2018-06-03T06:30:09.860Z,2.73
2018-06-03T06:33:07.960Z,2.57
2018-06-03T06:36:06.073Z,3.00
2018-06-03T06:39:03.576Z,2.70
2018-06-03T06:42:01.427Z,2.50
2018-06-03T06:44:59.666Z,2.90
2018-06-03T06:47:57.618Z,2.80
2018-06-03T06:50:55.399Z,3.37
2018-06-03T06:53:52.622Z,3.53
2018-06-03T06:56:50.659Z,3.57
2018-06-03T06:59:48.633Z,3.60
2018-06-03T07:02:47.749Z,3.60
2018-06-03T07:05:45.858Z,3.53
2018-06-03T07:08:43.729Z,3.23
2018-06-03T07:11:41.563Z,3.67
2018-06-03T07:14:40.020Z,3.07
2018-06-03T07:17:37.665Z,3.40
2018-06-03T07:20:35.308Z,3.35
2018-06-03T07:23:33.133Z,3.37
2018-06-03T07:26:30.873Z,3.70
2018-06-03T07:29:20.789Z,4.60
2018-06-03T07:32:10.636Z,3.80
2018-06-03T07:35:08.598Z,3.57
2018-06-03T07:38:06.901Z,3.20
2018-06-03T07:41:04.766Z,4.53
2018-06-03T07:44:02.740Z,2.77
2018-06-03T07:47:00.771Z,3.22
2018-06-03T07:49:58.606Z,4.25
2018-06-03T07:52:57.955Z,3.10
2018-06-03T07:55:55.595Z,3.08
2018-06-03T07:58:53.645Z,3.00
2018-06-03T08:01:51.612Z,3.12
2018-06-03T08:04:50.782Z,3.33
2018-06-03T08:07:48.532Z,3.42
2018-06-03T08:10:46.569Z,3.20
2018-06-03T08:13:44.804Z,3.10
2018-06-03T08:16:42.987Z,3.62
2018-06-03T08:19:41.241Z,2.70
2018-06-03T08:22:39.160Z,3.40
2018-06-03T08:25:37.028Z,3.35
2018-06-03T08:28:34.955Z,3.40
2018-06-03T08:31:24.746Z,3.45
2018-06-03T08:34:14.573Z,3.05
2018-06-03T08:37:12.761Z,2.58
2018-06-03T08:40:10.596Z,2.95
2018-06-03T08:43:08.677Z,3.33
2018-06-03T08:46:06.638Z,3.25
2018-06-03T08:49:04.784Z,3.70
2018-06-03T08:52:02.422Z,2.92
2018-06-03T08:54:52.127Z,3.20
2018-06-03T08:57:42.102Z,2.75
2018-06-03T09:00:39.846Z,3.45
2018-06-03T09:03:38.009Z,2.75
2018-06-03T09:06:35.930Z,2.35
2018-06-03T09:09:34.019Z,3.35
2018-06-03T09:12:32.027Z,2.33
2018-06-03T09:15:29.812Z,1.92
2018-06-03T09:18:27.621Z,2.17
2018-06-03T09:21:26.263Z,2.27
2018-06-03T09:24:26.292Z,2.80
2018-06-03T09:27:24.299Z,2.40
2018-06-03T09:30:22.504Z,2.62
2018-06-03T09:33:20.388Z,2.10
2018-06-03T09:36:18.495Z,2.20
2018-06-03T09:39:16.512Z,2.30
2018-06-03T09:42:14.458Z,2.55
2018-06-03T09:45:12.333Z,2.17
2018-06-03T09:48:11.088Z,2.92
2018-06-03T09:51:08.775Z,2.42
2018-06-03T09:54:06.615Z,3.37
2018-06-03T09:57:04.486Z,3.25
2018-06-03T10:00:02.197Z,4.75
2018-06-03T10:03:00.019Z,2.75
2018-06-03T10:05:57.920Z,3.17
2018-06-03T10:08:55.874Z,2.75
2018-06-03T10:11:53.931Z,2.62
2018-06-03T10:14:51.875Z,2.75
2018-06-03T10:17:50.106Z,3.52
2018-06-03T10:20:47.945Z,3.35
2018-06-03T10:23:45.999Z,3.77
2018-06-03T10:26:43.908Z,3.10
2018-06-03T10:29:41.984Z,3.10
2018-06-03T10:32:39.833Z,3.72
2018-06-03T10:35:38.038Z,3.12
2018-06-03T10:38:36.049Z,3.60
2018-06-03T10:41:33.958Z,3.72
2018-06-03T10:44:31.856Z,4.40
2018-06-03T10:47:29.963Z,3.70
2018-06-03T10:50:27.917Z,3.40
2018-06-03T10:53:27.245Z,3.60
2018-06-03T10:56:24.977Z,3.80
2018-06-03T10:59:22.853Z,3.52
2018-06-03T11:02:13.441Z,3.77
2018-06-03T11:05:11.232Z,3.33
2018-06-03T11:08:09.199Z,4.58
2018-06-03T11:11:06.955Z,4.62
2018-06-03T11:14:05.037Z,4.85
2018-06-03T11:17:02.972Z,3.95
2018-06-03T11:20:01.019Z,4.25
2018-06-03T11:22:59.272Z,4.15
2018-06-03T11:25:57.045Z,4.10
2018-06-03T11:28:54.452Z,4.70
2018-06-03T11:31:52.473Z,4.47
2018-06-03T11:34:50.452Z,2.47
2018-06-03T11:37:48.144Z,3.45
2018-06-03T11:40:46.321Z,3.70
2018-06-03T11:43:44.302Z,3.45
2018-06-03T11:46:42.226Z,3.40
2018-06-03T11:49:40.186Z,3.42
2018-06-03T11:52:38.264Z,3.47
2018-06-03T11:55:36.404Z,3.42
2018-06-03T11:59:07.330Z,3.55
2018-06-03T12:02:05.302Z,3.92
2018-06-03T12:05:03.364Z,4.00
2018-06-03T12:08:01.551Z,3.80
2018-06-03T12:10:59.451Z,4.00
2018-06-03T12:22:47.712Z,3.63
2018-06-03T12:25:45.177Z,3.70
2018-06-03T12:28:42.890Z,3.60
2018-06-03T12:31:33.393Z,4.33
2018-06-03T12:34:30.696Z,3.80
2018-06-03T12:37:28.825Z,4.10
2018-06-03T12:40:26.978Z,3.20
2018-06-03T12:43:25.075Z,3.80
2018-06-03T12:46:23.323Z,3.03
2018-06-03T12:49:20.668Z,3.70
2018-06-03T12:52:18.843Z,3.10
2018-06-03T12:55:16.170Z,3.23
2018-06-03T12:58:13.608Z,3.00
2018-06-03T13:01:10.927Z,2.70
2018-06-03T13:04:09.160Z,2.80
2018-06-03T13:07:07.362Z,3.30
2018-06-03T13:10:05.419Z,3.43
2018-06-03T13:13:03.564Z,3.27
2018-06-03T13:16:01.589Z,2.80
2018-06-03T13:18:58.794Z,2.90
2018-06-03T13:21:56.279Z,2.70
2018-06-03T13:24:54.436Z,3.17
2018-06-03T13:27:51.653Z,4.07
2018-06-03T13:30:49.745Z,4.10
2018-06-03T13:33:47.709Z,3.80
2018-06-03T13:36:45.795Z,4.30
2018-06-03T13:39:43.730Z,4.00
2018-06-03T13:42:42.041Z,4.33
2018-06-03T13:45:42.108Z,4.60
2018-06-03T13:48:39.997Z,4.50
2018-06-03T13:51:38.094Z,4.73
2018-06-03T13:54:37.398Z,4.93
2018-06-03T13:57:35.260Z,5.00
2018-06-03T14:00:33.527Z,5.70
2018-06-03T14:03:31.613Z,4.73
2018-06-03T14:06:29.769Z,4.57
2018-06-03T14:09:28.736Z,4.53
2018-06-03T14:12:26.821Z,4.80
2018-06-03T14:15:25.062Z,5.50
2018-06-03T14:18:23.073Z,4.97
2018-06-03T14:21:20.985Z,5.33
2018-06-03T14:24:18.934Z,4.77
2018-06-03T14:27:17.728Z,5.23
2018-06-03T14:30:15.529Z,5.43
2018-06-03T14:33:13.570Z,5.50
2018-06-03T14:36:11.479Z,5.70
2018-06-03T14:39:08.770Z,5.43
2018-06-03T14:42:06.783Z,4.77
2018-06-03T14:45:04.747Z,5.53
2018-06-03T14:48:02.165Z,5.53
2018-06-03T14:51:00.064Z,5.90
2018-06-03T14:53:58.391Z,5.00
2018-06-03T14:56:56.527Z,5.77
2018-06-03T14:59:53.988Z,5.33
2018-06-03T15:02:51.714Z,5.40
2018-06-03T15:05:49.470Z,5.20
2018-06-03T15:08:47.574Z,5.10
2018-06-03T15:11:46.584Z,4.67
2018-06-03T15:14:44.637Z,5.50
2018-06-03T15:17:42.756Z,5.47
2018-06-03T15:20:40.730Z,5.37
2018-06-03T15:23:38.567Z,4.90
2018-06-03T15:26:36.689Z,4.87
2018-06-03T15:29:34.855Z,5.10
2018-06-03T15:32:33.904Z,4.73
2018-06-03T15:35:31.927Z,4.90
2018-06-03T15:38:29.915Z,5.17
2018-06-03T15:41:28.162Z,6.50
2018-06-03T15:44:26.147Z,6.27
2018-06-03T15:47:23.889Z,4.83
2018-06-03T15:50:22.637Z,4.87
2018-06-03T15:53:20.281Z,5.77
2018-06-03T15:56:17.513Z,5.60
2018-06-03T15:59:15.449Z,5.00
2018-06-03T16:02:13.632Z,4.80
2018-06-03T16:05:11.694Z,6.03
2018-06-03T16:08:09.599Z,6.00
2018-06-03T16:11:07.830Z,6.80
2018-06-03T16:14:05.913Z,6.87
2018-06-03T16:17:03.372Z,6.03
2018-06-03T16:20:00.817Z,6.07
2018-06-03T16:22:58.914Z,7.10
2018-06-03T16:25:57.073Z,7.00
2018-06-03T16:28:55.292Z,7.80
2018-06-03T16:31:53.276Z,7.10
2018-06-03T16:34:52.247Z,6.43
2018-06-03T16:37:50.383Z,5.90
2018-06-03T16:40:48.386Z,6.67
2018-06-03T16:43:46.032Z,7.17
2018-06-03T16:46:44.175Z,6.60
2018-06-03T16:49:43.560Z,5.30
2018-06-03T16:52:42.191Z,6.20
2018-06-03T16:55:40.092Z,6.23
2018-06-03T16:58:37.397Z,6.17
2018-06-03T17:01:35.526Z,6.50
2018-06-03T17:04:33.511Z,6.70
2018-06-03T17:07:30.758Z,6.43
2018-06-03T17:10:28.812Z,6.87
2018-06-03T17:13:32.602Z,5.70
2018-06-03T17:16:30.511Z,6.17
2018-06-03T17:19:28.601Z,5.70
2018-06-03T17:22:26.692Z,6.63
2018-06-03T17:25:24.814Z,6.70
2018-06-03T17:28:23.600Z,6.57
2018-06-03T17:31:21.256Z,5.80
2018-06-03T17:34:19.433Z,6.00
2018-06-03T17:37:17.625Z,5.70
2018-06-03T17:40:15.786Z,6.50
2018-06-03T17:43:13.851Z,5.93
2018-06-03T17:46:11.161Z,5.57
2018-06-03T17:49:09.156Z,6.27
2018-06-03T17:52:07.121Z,6.00
2018-06-03T17:55:04.243Z,5.47
2018-06-03T17:58:02.181Z,5.53
2018-06-03T18:01:00.208Z,6.37
2018-06-03T18:03:58.271Z,6.13
2018-06-03T18:06:55.617Z,6.57
2018-06-03T18:09:54.460Z,6.30
2018-06-03T18:12:52.619Z,5.73
2018-06-03T18:15:50.811Z,6.03
2018-06-03T18:18:49.065Z,7.00
2018-06-03T18:21:47.367Z,6.23
2018-06-03T18:24:45.277Z,7.00
2018-06-03T18:27:43.851Z,6.90
2018-06-03T18:30:42.525Z,6.87
2018-06-03T18:33:40.602Z,7.20
2018-06-03T18:36:37.832Z,7.17
2018-06-03T18:39:35.230Z,6.97
2018-06-03T18:42:33.179Z,7.27
2018-06-03T18:45:31.164Z,6.63
2018-06-03T18:48:29.531Z,6.43
2018-06-03T18:51:27.214Z,7.00
2018-06-03T18:54:25.322Z,6.97
2018-06-03T18:57:23.292Z,6.80
2018-06-03T19:00:21.141Z,7.33
2018-06-03T19:03:19.147Z,6.10
2018-06-03T19:06:16.505Z,7.17
2018-06-03T19:09:14.441Z,6.97
2018-06-03T19:12:12.343Z,6.77
2018-06-03T19:15:10.543Z,6.50
2018-06-03T19:18:10.562Z,6.93
2018-06-03T19:21:07.808Z,7.27
2018-06-03T19:24:05.063Z,6.97
2018-06-03T19:27:02.385Z,7.43
2018-06-03T19:30:00.276Z,6.37
2018-06-03T19:32:57.518Z,7.70
2018-06-03T19:35:54.892Z,7.43
2018-06-03T19:38:52.817Z,7.07
2018-06-03T19:41:50.858Z,6.93
2018-06-03T19:44:40.755Z,7.03
2018-06-03T19:47:38.853Z,7.50
2018-06-03T19:50:29.120Z,7.23
2018-06-03T19:53:28.145Z,10.63
2018-06-03T19:56:26.266Z,7.33
2018-06-03T19:59:23.485Z,8.60
2018-06-03T20:02:21.421Z,7.20
2018-06-03T20:05:19.595Z,7.63
2018-06-03T20:08:16.842Z,7.73
2018-06-03T20:11:15.105Z,8.53
2018-06-03T20:14:13.344Z,7.27
2018-06-03T20:17:12.605Z,7.80
2018-06-03T20:20:10.932Z,7.47
2018-06-03T20:23:12.148Z,7.13
2018-06-03T20:26:09.672Z,7.23
2018-06-03T20:28:59.531Z,6.57
2018-06-03T20:31:56.923Z,7.87
2018-06-03T20:34:55.044Z,7.70
2018-06-03T20:37:53.186Z,7.50
2018-06-03T20:40:51.173Z,7.23
2018-06-03T20:43:49.304Z,6.80
2018-06-03T20:46:53.695Z,7.83
2018-06-03T20:49:53.774Z,7.73
2018-06-03T20:52:55.010Z,7.33
2018-06-03T20:55:52.813Z,6.53
2018-06-03T20:58:51.008Z,7.97
2018-06-03T21:01:49.196Z,7.37
2018-06-03T21:04:47.268Z,7.40
2018-06-03T21:07:44.418Z,7.37
2018-06-03T21:10:41.838Z,7.70
2018-06-03T21:13:39.931Z,10.73
2018-06-03T21:16:37.789Z,7.63
2018-06-03T21:19:35.768Z,7.33
2018-06-03T21:22:33.787Z,6.43
2018-06-03T21:25:31.033Z,6.93
2018-06-03T21:28:29.077Z,7.07
2018-06-03T21:31:26.311Z,8.17
2018-06-03T21:34:24.465Z,7.00
2018-06-03T21:37:21.678Z,6.53
2018-06-03T21:40:19.684Z,7.03
2018-06-03T21:43:09.820Z,7.20
2018-06-03T21:46:07.968Z,6.40
2018-06-03T21:49:07.012Z,6.60
2018-06-03T21:52:04.315Z,6.67
2018-06-03T21:55:01.648Z,6.67
2018-06-03T21:57:59.807Z,6.47
2018-06-03T22:00:57.750Z,7.47
2018-06-03T22:03:55.683Z,7.03
2018-06-03T22:06:53.916Z,6.33
2018-06-03T22:09:52.058Z,7.47
2018-06-03T22:12:49.984Z,6.63
2018-06-03T22:15:48.204Z,7.53
2018-06-03T22:18:45.406Z,6.93
2018-06-03T22:21:42.733Z,6.43
2018-06-03T22:24:40.861Z,6.77
2018-06-03T22:27:38.230Z,6.60
2018-06-03T22:30:36.186Z,6.67
2018-06-03T22:34:05.350Z,6.73
2018-06-03T22:37:03.492Z,6.97
2018-06-03T22:40:01.486Z,6.70
2018-06-03T22:42:58.707Z,6.70
2018-06-03T22:45:56.015Z,6.87
2018-06-03T22:48:54.048Z,6.43
2018-06-03T22:51:52.159Z,6.37
2018-06-03T22:54:51.226Z,6.13
2018-06-03T22:58:04.240Z,6.80
2018-06-03T23:01:01.417Z,5.80
2018-06-03T23:03:59.456Z,5.90
2018-06-03T23:06:57.402Z,6.13
2018-06-03T23:09:55.664Z,6.80
2018-06-03T23:12:53.646Z,6.20
2018-06-03T23:15:51.775Z,5.90
2018-06-03T23:18:50.917Z,6.80
2018-06-03T23:21:48.107Z,6.23
2018-06-03T23:24:46.138Z,6.67
2018-06-03T23:27:44.161Z,6.67
2018-06-03T23:30:42.200Z,6.67
2018-06-03T23:33:40.345Z,6.97
2018-06-03T23:36:38.508Z,6.37
2018-06-03T23:39:36.557Z,6.30
2018-06-03T23:42:34.680Z,5.53
2018-06-03T23:45:24.645Z,6.53
2018-06-03T23:48:22.812Z,6.23
2018-06-03T23:51:20.015Z,6.17
2018-06-03T23:54:18.135Z,5.80
2018-06-03T23:57:16.280Z,5.93
